createdAt,value
2019-06-26T00:01:09.817Z,61.90
2019-06-26T00:03:38.547Z,62.00
2019-06-26T00:06:06.977Z,62.30
2019-06-26T00:08:35.742Z,62.90
2019-06-26T00:11:04.260Z,62.90
2019-06-26T00:13:32.671Z,63.30
2019-06-26T00:16:01.095Z,63.50
2019-06-26T00:18:29.648Z,63.70
2019-06-26T00:20:58.073Z,63.90
2019-06-26T00:23:26.567Z,64.00
2019-06-26T00:25:55.010Z,64.30
2019-06-26T00:28:23.600Z,64.30
2019-06-26T00:30:52.086Z,64.40
2019-06-26T00:33:20.550Z,64.70
2019-06-26T00:35:49.045Z,65.00
2019-06-26T00:38:17.469Z,64.80
2019-06-26T00:40:46.382Z,64.80
2019-06-26T00:43:16.385Z,64.90
2019-06-26T00:45:44.804Z,65.00
2019-06-26T00:48:13.362Z,65.30
2019-06-26T00:50:41.817Z,65.50
2019-06-26T00:53:10.270Z,65.60
2019-06-26T00:55:38.840Z,65.50
2019-06-26T00:58:07.258Z,65.70
2019-06-26T01:00:44.066Z,66.00
2019-06-26T01:03:12.513Z,66.20
2019-06-26T01:05:40.933Z,66.00
2019-06-26T01:08:09.474Z,66.30
2019-06-26T01:10:38.235Z,66.30
2019-06-26T01:13:06.740Z,66.30
2019-06-26T01:15:35.174Z,66.30
2019-06-26T01:18:03.761Z,66.50
2019-06-26T01:20:32.202Z,66.70
2019-06-26T01:23:00.692Z,66.80
2019-06-26T01:25:29.202Z,66.80
2019-06-26T01:27:57.621Z,67.00
2019-06-26T01:30:26.199Z,67.10
2019-06-26T01:32:54.775Z,67.30
2019-06-26T01:35:23.188Z,67.30
2019-06-26T01:37:51.769Z,67.10
2019-06-26T01:40:20.328Z,67.40
2019-06-26T01:42:48.763Z,67.50
2019-06-26T01:45:17.321Z,67.70
2019-06-26T01:47:45.841Z,67.90
2019-06-26T01:50:16.177Z,68.00
2019-06-26T01:52:44.610Z,68.10
2019-06-26T01:55:13.158Z,68.00
2019-06-26T01:57:41.629Z,68.20
2019-06-26T02:00:11.184Z,68.40
2019-06-26T02:02:39.693Z,68.30
2019-06-26T02:05:09.058Z,68.50
2019-06-26T02:07:37.492Z,68.60
2019-06-26T02:10:06.666Z,68.60
2019-06-26T02:12:35.171Z,68.90
2019-06-26T02:15:05.806Z,68.90
2019-06-26T02:17:34.269Z,68.90
2019-06-26T02:20:02.687Z,69.20
2019-06-26T02:22:31.252Z,69.20
2019-06-26T02:24:59.686Z,69.20
2019-06-26T02:27:28.243Z,69.40
2019-06-26T02:29:56.664Z,69.50
2019-06-26T02:32:25.105Z,69.50
2019-06-26T02:34:53.525Z,69.60
2019-06-26T02:37:21.943Z,69.60
2019-06-26T02:39:50.413Z,69.80
2019-06-26T02:42:18.883Z,69.90
2019-06-26T02:44:53.960Z,69.60
2019-06-26T02:47:20.784Z,69.90
2019-06-26T02:49:49.157Z,69.90
2019-06-26T02:52:17.572Z,70.10
2019-06-26T02:54:46.014Z,69.90
2019-06-26T02:57:14.434Z,70.10
2019-06-26T02:59:42.845Z,70.20
2019-06-26T03:02:11.434Z,70.40
2019-06-26T03:04:39.851Z,70.60
2019-06-26T03:07:09.917Z,70.70
2019-06-26T03:09:38.353Z,70.80
2019-06-26T03:12:06.778Z,70.80
2019-06-26T03:14:36.722Z,70.90
2019-06-26T03:17:06.047Z,71.10
2019-06-26T03:19:34.457Z,71.20
2019-06-26T03:22:02.948Z,71.30
2019-06-26T03:24:31.393Z,71.50
2019-06-26T03:26:59.812Z,71.50
2019-06-26T03:29:28.249Z,71.60
2019-06-26T03:31:56.710Z,71.60
2019-06-26T03:34:25.137Z,71.60
2019-06-26T03:36:55.197Z,71.70
2019-06-26T03:39:26.301Z,71.80
2019-06-26T03:41:54.731Z,71.70
2019-06-26T03:44:23.155Z,72.30
2019-06-26T03:46:52.117Z,72.00
2019-06-26T03:49:20.541Z,71.90
2019-06-26T03:51:48.965Z,71.90
2019-06-26T03:54:17.594Z,72.00
2019-06-26T03:56:46.017Z,72.10
2019-06-26T03:59:14.443Z,72.00
2019-06-26T04:01:42.958Z,72.10
2019-06-26T04:04:11.379Z,72.20
2019-06-26T04:06:39.791Z,72.20
2019-06-26T04:09:08.237Z,72.10
2019-06-26T04:11:36.660Z,72.10
2019-06-26T04:14:05.830Z,72.10
2019-06-26T04:16:34.339Z,72.10
2019-06-26T04:19:02.748Z,72.00
2019-06-26T04:21:31.165Z,72.20
2019-06-26T04:23:59.607Z,72.30
2019-06-26T04:26:28.665Z,72.10
2019-06-26T04:28:57.085Z,72.10
2019-06-26T04:31:25.662Z,72.30
2019-06-26T04:33:54.080Z,72.20
2019-06-26T04:36:22.500Z,72.00
2019-06-26T04:38:50.921Z,72.00
2019-06-26T04:41:19.339Z,72.20
2019-06-26T04:43:47.758Z,72.40
2019-06-26T04:46:16.394Z,72.30
2019-06-26T04:48:44.829Z,72.40
2019-06-26T04:51:13.304Z,72.20
2019-06-26T04:53:41.745Z,72.10
2019-06-26T04:56:10.275Z,72.10
2019-06-26T04:58:39.073Z,72.10
2019-06-26T05:01:07.524Z,72.20
2019-06-26T05:03:36.010Z,72.00
2019-06-26T05:06:05.452Z,72.00
2019-06-26T05:08:33.960Z,71.80
2019-06-26T05:11:02.428Z,71.90
2019-06-26T05:13:30.941Z,71.90
2019-06-26T05:16:13.863Z,71.90
2019-06-26T05:18:29.674Z,71.90
2019-06-26T05:20:58.103Z,72.00
2019-06-26T05:23:26.544Z,71.90
2019-06-26T05:25:54.953Z,72.10
2019-06-26T05:28:23.368Z,72.00
2019-06-26T05:30:51.797Z,72.00
2019-06-26T05:33:20.265Z,71.90
2019-06-26T05:35:48.684Z,71.80
2019-06-26T05:38:17.218Z,71.70
2019-06-26T05:40:45.862Z,71.80
2019-06-26T05:43:14.319Z,71.70
2019-06-26T05:45:43.083Z,71.70
2019-06-26T05:48:11.519Z,71.60
2019-06-26T05:50:40.062Z,71.40
2019-06-26T05:53:08.521Z,71.40
2019-06-26T05:55:36.949Z,71.40
2019-06-26T05:58:05.787Z,71.30
2019-06-26T06:00:34.343Z,71.30
2019-06-26T06:03:02.769Z,71.20
2019-06-26T06:05:31.168Z,72.20
2019-06-26T06:07:59.648Z,71.30
2019-06-26T06:10:28.069Z,71.10
2019-06-26T06:12:56.497Z,70.90
2019-06-26T06:15:24.934Z,70.60
2019-06-26T06:17:53.460Z,70.20
2019-06-26T06:20:24.913Z,70.00
2019-06-26T06:22:53.348Z,70.00
2019-06-26T06:25:21.761Z,69.50
2019-06-26T06:27:50.545Z,69.20
2019-06-26T06:30:19.022Z,68.80
2019-06-26T06:32:47.784Z,68.70
2019-06-26T06:35:16.336Z,68.70
2019-06-26T06:37:45.132Z,68.30
2019-06-26T06:40:13.988Z,68.10
2019-06-26T06:42:42.420Z,67.90
2019-06-26T06:45:11.793Z,67.60
2019-06-26T06:47:40.294Z,67.40
2019-06-26T06:50:08.839Z,67.00
2019-06-26T06:52:37.265Z,67.00
2019-06-26T06:55:07.080Z,67.30
2019-06-26T06:57:37.042Z,67.50
2019-06-26T07:00:07.569Z,67.30
2019-06-26T07:02:35.977Z,67.30
2019-06-26T07:05:06.632Z,67.20
2019-06-26T07:07:35.166Z,67.20
2019-06-26T07:10:04.370Z,67.20
2019-06-26T07:12:32.771Z,67.20
2019-06-26T07:15:01.239Z,67.20
2019-06-26T07:17:29.918Z,67.00
2019-06-26T07:19:58.416Z,66.90
2019-06-26T07:22:27.262Z,67.00
2019-06-26T07:24:55.766Z,66.90
2019-06-26T07:27:24.234Z,66.80
2019-06-26T07:29:52.681Z,66.90
2019-06-26T07:32:21.087Z,66.80
2019-06-26T07:34:49.512Z,66.80
2019-06-26T07:37:17.943Z,66.60
2019-06-26T07:39:46.376Z,66.60
2019-06-26T07:42:14.849Z,66.60
2019-06-26T07:44:43.276Z,66.60
2019-06-26T07:47:22.594Z,66.50
2019-06-26T07:49:41.937Z,66.40
2019-06-26T07:52:12.521Z,66.20
2019-06-26T07:54:40.940Z,66.20
2019-06-26T07:57:09.425Z,66.10
2019-06-26T07:59:39.307Z,66.10
2019-06-26T08:02:08.379Z,66.10
2019-06-26T08:04:36.788Z,65.80
2019-06-26T08:07:05.863Z,65.60
2019-06-26T08:09:34.324Z,65.90
2019-06-26T08:12:02.742Z,66.00
2019-06-26T08:14:31.238Z,65.80
2019-06-26T08:16:59.783Z,65.80
2019-06-26T08:19:28.190Z,65.80
2019-06-26T08:21:56.625Z,65.50
2019-06-26T08:24:25.201Z,65.50
2019-06-26T08:26:53.906Z,65.50
2019-06-26T08:29:22.827Z,65.20
2019-06-26T08:31:51.246Z,66.10
2019-06-26T08:34:19.662Z,65.50
2019-06-26T08:36:48.096Z,65.50
2019-06-26T08:39:18.120Z,65.30
2019-06-26T08:41:46.548Z,65.40
2019-06-26T08:44:15.076Z,65.20
2019-06-26T08:46:43.611Z,65.00
2019-06-26T08:49:25.049Z,64.90
2019-06-26T08:51:42.255Z,64.80
2019-06-26T08:54:10.673Z,64.60
2019-06-26T08:56:39.169Z,64.60
2019-06-26T08:59:07.920Z,64.70
2019-06-26T09:01:36.396Z,64.60
2019-06-26T09:04:06.013Z,64.10
2019-06-26T09:06:34.677Z,63.80
2019-06-26T09:09:03.116Z,63.40
2019-06-26T09:11:31.632Z,63.10
2019-06-26T09:14:00.081Z,62.90
2019-06-26T09:16:28.493Z,63.10
2019-06-26T09:18:56.904Z,63.00
2019-06-26T09:21:25.352Z,63.20
2019-06-26T09:23:53.832Z,63.10
2019-06-26T09:26:22.383Z,62.80
2019-06-26T09:28:50.820Z,62.40
2019-06-26T09:31:19.230Z,62.10
2019-06-26T09:33:47.647Z,62.00
2019-06-26T09:36:16.083Z,61.60
2019-06-26T09:38:44.562Z,61.70
2019-06-26T09:41:12.987Z,61.70
2019-06-26T09:43:42.437Z,61.70
2019-06-26T09:46:11.177Z,61.50
2019-06-26T09:48:52.302Z,61.50
2019-06-26T09:51:09.765Z,61.60
2019-06-26T09:53:47.160Z,61.20
2019-06-26T09:56:08.394Z,61.00
2019-06-26T09:58:36.825Z,60.80
2019-06-26T10:01:07.138Z,60.60
2019-06-26T10:03:35.570Z,60.20
2019-06-26T10:06:04.031Z,60.10
2019-06-26T10:08:32.440Z,60.40
2019-06-26T10:11:00.947Z,60.10
2019-06-26T10:13:29.447Z,59.70
2019-06-26T10:16:00.434Z,59.80
2019-06-26T10:18:28.661Z,59.80
2019-06-26T10:20:57.093Z,59.70
2019-06-26T10:23:25.515Z,59.70
2019-06-26T10:25:53.927Z,59.80
2019-06-26T10:28:22.382Z,59.60
2019-06-26T10:30:50.808Z,59.20
2019-06-26T10:33:19.225Z,59.20
2019-06-26T10:35:47.657Z,59.20
2019-06-26T10:38:16.072Z,59.00
2019-06-26T10:40:44.494Z,58.80
2019-06-26T10:43:13.020Z,58.50
2019-06-26T10:45:41.434Z,58.40
2019-06-26T10:48:11.124Z,58.50
2019-06-26T10:50:49.930Z,58.50
2019-06-26T10:53:09.780Z,58.40
2019-06-26T10:55:38.269Z,58.00
2019-06-26T10:58:06.703Z,57.70
2019-06-26T11:00:35.493Z,57.00
2019-06-26T11:03:03.969Z,56.80
2019-06-26T11:05:32.400Z,56.80
2019-06-26T11:08:00.829Z,56.60
2019-06-26T11:10:29.269Z,56.70
2019-06-26T11:12:57.707Z,56.90
2019-06-26T11:15:26.688Z,56.70
2019-06-26T11:17:55.155Z,56.40
2019-06-26T11:20:26.028Z,56.30
2019-06-26T11:22:54.481Z,56.20
2019-06-26T11:25:23.030Z,56.10
2019-06-26T11:27:51.496Z,56.00
2019-06-26T11:30:21.602Z,55.90
2019-06-26T11:32:50.079Z,55.80
2019-06-26T11:35:19.127Z,55.80
2019-06-26T11:37:47.671Z,55.60
2019-06-26T11:40:16.524Z,55.60
2019-06-26T11:42:45.194Z,55.40
2019-06-26T11:45:14.088Z,55.00
2019-06-26T11:47:45.770Z,54.80
2019-06-26T11:50:13.408Z,54.70
2019-06-26T11:52:41.835Z,54.50
2019-06-26T11:55:10.940Z,54.30
2019-06-26T11:57:39.463Z,54.40
2019-06-26T12:00:10.023Z,54.20
2019-06-26T12:02:38.484Z,54.10
2019-06-26T12:05:07.673Z,54.20
2019-06-26T12:07:36.235Z,54.10
2019-06-26T12:10:06.804Z,54.00
2019-06-26T12:12:35.322Z,54.00
2019-06-26T12:15:03.999Z,53.80
2019-06-26T12:17:32.425Z,53.70
2019-06-26T12:20:17.094Z,53.90
2019-06-26T12:22:31.268Z,53.50
2019-06-26T12:24:59.708Z,52.90
2019-06-26T12:27:28.203Z,52.60
2019-06-26T12:29:56.636Z,52.20
2019-06-26T12:32:27.126Z,52.40
2019-06-26T12:34:55.706Z,51.80
2019-06-26T12:37:36.919Z,51.50
2019-06-26T12:39:54.673Z,51.20
2019-06-26T12:42:24.292Z,51.80
2019-06-26T12:44:52.702Z,51.10
2019-06-26T12:47:21.114Z,50.80
2019-06-26T12:49:49.549Z,50.40
2019-06-26T12:52:17.952Z,50.40
2019-06-26T12:54:46.376Z,50.70
2019-06-26T12:57:14.868Z,50.60
2019-06-26T12:59:56.484Z,50.50
2019-06-26T13:02:13.421Z,50.10
2019-06-26T13:04:44.708Z,49.80
2019-06-26T13:07:13.855Z,50.00
2019-06-26T13:09:42.337Z,49.90
2019-06-26T13:12:10.780Z,50.00
2019-06-26T13:14:39.203Z,49.70
2019-06-26T13:17:07.605Z,50.00
2019-06-26T13:19:36.144Z,50.30
2019-06-26T13:22:04.567Z,49.80
2019-06-26T13:24:32.988Z,49.50
2019-06-26T13:27:03.007Z,49.30
2019-06-26T13:29:31.413Z,49.80
2019-06-26T13:31:59.877Z,49.70
2019-06-26T13:34:28.307Z,49.80
2019-06-26T13:36:56.708Z,49.40
2019-06-26T13:39:25.119Z,49.60
2019-06-26T13:41:54.066Z,49.40
2019-06-26T13:44:22.472Z,49.50
2019-06-26T13:46:50.884Z,49.60
2019-06-26T13:49:19.358Z,49.60
2019-06-26T13:51:47.820Z,49.60
2019-06-26T13:54:16.237Z,49.40
2019-06-26T13:56:44.668Z,50.00
2019-06-26T13:59:13.076Z,50.00
2019-06-26T14:01:41.493Z,50.00
2019-06-26T14:04:10.098Z,49.70
2019-06-26T14:06:43.869Z,49.30
2019-06-26T14:09:12.261Z,49.40
2019-06-26T14:11:40.805Z,49.30
2019-06-26T14:14:09.252Z,49.90
2019-06-26T14:16:37.695Z,49.20
2019-06-26T14:19:07.085Z,49.20
2019-06-26T14:21:36.843Z,49.00
2019-06-26T14:24:06.441Z,48.90
2019-06-26T14:26:34.902Z,48.80
2019-06-26T14:29:16.998Z,48.50
2019-06-26T14:31:33.540Z,48.30
2019-06-26T14:34:01.955Z,48.40
2019-06-26T14:36:32.688Z,48.20
2019-06-26T14:39:01.120Z,48.40
2019-06-26T14:41:29.766Z,47.90
2019-06-26T14:43:58.182Z,47.70
2019-06-26T14:46:26.601Z,47.20
2019-06-26T14:48:55.036Z,47.30
2019-06-26T14:51:23.481Z,47.00
2019-06-26T14:53:51.912Z,46.90
2019-06-26T14:56:20.351Z,46.90
2019-06-26T14:58:48.821Z,47.00
2019-06-26T15:01:17.243Z,46.70
2019-06-26T15:03:45.794Z,46.70
2019-06-26T15:06:16.963Z,46.60
2019-06-26T15:08:44.917Z,46.50
2019-06-26T15:11:15.645Z,46.40
2019-06-26T15:13:43.661Z,46.40
2019-06-26T15:16:12.265Z,46.50
2019-06-26T15:18:41.098Z,46.60
2019-06-26T15:21:09.649Z,46.10
2019-06-26T15:23:38.134Z,46.00
2019-06-26T15:26:06.563Z,46.60
2019-06-26T15:28:35.075Z,45.90
2019-06-26T15:31:03.653Z,45.80
2019-06-26T15:33:32.096Z,45.90
2019-06-26T15:36:00.636Z,45.90
2019-06-26T15:38:29.311Z,45.90
2019-06-26T15:40:57.821Z,45.80
2019-06-26T15:43:26.613Z,45.80
2019-06-26T15:45:55.088Z,46.10
2019-06-26T15:48:23.592Z,45.80
2019-06-26T15:50:52.026Z,46.00
2019-06-26T15:53:22.211Z,45.80
2019-06-26T15:55:51.003Z,46.00
2019-06-26T15:58:19.415Z,46.30
2019-06-26T16:00:47.891Z,46.30
2019-06-26T16:03:16.405Z,46.10
2019-06-26T16:05:44.895Z,45.90
2019-06-26T16:08:13.362Z,45.90
2019-06-26T16:10:42.244Z,45.70
2019-06-26T16:13:10.670Z,46.30
2019-06-26T16:15:40.758Z,45.60
2019-06-26T16:18:20.224Z,45.70
2019-06-26T16:20:48.666Z,45.90
2019-06-26T16:23:17.269Z,45.90
2019-06-26T16:25:45.705Z,45.70
2019-06-26T16:28:14.119Z,45.70
2019-06-26T16:30:42.722Z,45.80
2019-06-26T16:33:14.729Z,45.70
2019-06-26T16:35:43.175Z,46.10
2019-06-26T16:38:11.874Z,45.70
2019-06-26T16:40:40.383Z,45.50
2019-06-26T16:43:08.854Z,45.10
2019-06-26T16:45:37.281Z,45.00
2019-06-26T16:48:07.796Z,45.40
2019-06-26T16:50:36.199Z,45.30
2019-06-26T16:53:04.880Z,45.00
2019-06-26T16:55:33.586Z,44.80
2019-06-26T16:58:02.182Z,44.40
2019-06-26T17:00:30.657Z,44.20
2019-06-26T17:02:59.099Z,44.30
2019-06-26T17:05:27.574Z,44.60
2019-06-26T17:07:56.048Z,45.10
2019-06-26T17:10:24.565Z,45.60
2019-06-26T17:12:53.271Z,45.70
2019-06-26T17:15:21.969Z,45.70
2019-06-26T17:17:50.767Z,45.70
2019-06-26T17:20:19.690Z,45.90
2019-06-26T17:23:04.033Z,45.90
2019-06-26T17:25:18.509Z,46.10
2019-06-26T17:27:46.925Z,46.30
2019-06-26T17:30:15.670Z,46.50
2019-06-26T17:32:44.119Z,46.60
2019-06-26T17:35:12.861Z,46.70
2019-06-26T17:37:41.693Z,46.90
2019-06-26T17:40:10.692Z,46.90
2019-06-26T17:42:39.105Z,47.10
2019-06-26T17:45:08.452Z,47.20
2019-06-26T17:47:37.177Z,47.20
2019-06-26T17:50:06.643Z,47.40
2019-06-26T17:52:38.273Z,47.50
2019-06-26T17:55:08.909Z,47.60
2019-06-26T17:57:37.394Z,47.90
2019-06-26T18:00:08.804Z,48.00
2019-06-26T18:02:37.326Z,48.30
2019-06-26T18:05:07.791Z,48.40
2019-06-26T18:07:36.225Z,48.80
2019-06-26T18:10:07.286Z,49.00
2019-06-26T18:12:36.180Z,49.40
2019-06-26T18:15:07.031Z,49.60
2019-06-26T18:17:35.461Z,49.80
2019-06-26T18:20:06.022Z,50.20
2019-06-26T18:22:34.698Z,50.40
2019-06-26T18:25:03.306Z,50.80
2019-06-26T18:27:31.719Z,50.90
2019-06-26T18:30:01.386Z,51.20
2019-06-26T18:32:30.648Z,51.40
2019-06-26T18:34:59.077Z,51.50
2019-06-26T18:37:27.493Z,51.80
2019-06-26T18:39:55.938Z,51.80
2019-06-26T18:42:24.346Z,51.90
2019-06-26T18:44:52.775Z,52.10
2019-06-26T18:47:21.205Z,52.20
2019-06-26T18:49:49.625Z,52.50
2019-06-26T18:52:18.114Z,53.30
2019-06-26T18:54:46.677Z,52.90
2019-06-26T18:57:15.133Z,53.10
2019-06-26T18:59:46.054Z,53.20
2019-06-26T19:02:14.559Z,53.30
2019-06-26T19:04:43.037Z,53.50
2019-06-26T19:07:11.979Z,53.60
2019-06-26T19:09:40.423Z,53.80
2019-06-26T19:12:08.845Z,54.00
2019-06-26T19:14:37.258Z,54.20
2019-06-26T19:17:06.170Z,54.40
2019-06-26T19:19:34.585Z,54.50
2019-06-26T19:22:03.022Z,54.50
2019-06-26T19:24:31.609Z,54.80
2019-06-26T19:27:00.454Z,55.00
2019-06-26T19:29:28.902Z,55.20
2019-06-26T19:31:57.459Z,55.40
2019-06-26T19:34:25.876Z,55.60
2019-06-26T19:36:54.293Z,55.80
2019-06-26T19:39:23.125Z,55.90
2019-06-26T19:41:51.547Z,56.20
2019-06-26T19:44:21.274Z,56.30
2019-06-26T19:46:49.876Z,56.50
2019-06-26T19:49:18.323Z,56.50
2019-06-26T19:51:46.735Z,56.50
2019-06-26T19:54:26.465Z,56.80
2019-06-26T19:56:45.466Z,56.80
2019-06-26T19:59:13.954Z,56.90
2019-06-26T20:01:42.383Z,56.90
2019-06-26T20:04:10.814Z,57.00
2019-06-26T20:06:40.769Z,57.10
2019-06-26T20:09:09.216Z,57.00
2019-06-26T20:11:37.697Z,57.10
2019-06-26T20:14:06.198Z,57.20
2019-06-26T20:16:34.625Z,57.20
2019-06-26T20:19:03.255Z,57.30
2019-06-26T20:21:31.705Z,57.50
2019-06-26T20:24:00.145Z,57.50
2019-06-26T20:26:29.112Z,57.30
2019-06-26T20:28:57.526Z,57.30
2019-06-26T20:31:25.957Z,57.50
2019-06-26T20:33:54.397Z,57.70
2019-06-26T20:36:22.829Z,57.50
2019-06-26T20:38:51.829Z,57.70
2019-06-26T20:41:20.367Z,57.80
2019-06-26T20:43:48.828Z,58.00
2019-06-26T20:46:17.273Z,58.10
2019-06-26T20:48:45.684Z,58.30
2019-06-26T20:51:15.698Z,58.20
2019-06-26T20:53:44.160Z,58.20
2019-06-26T20:56:12.641Z,58.20
2019-06-26T20:58:41.828Z,58.40
2019-06-26T21:01:10.261Z,58.40
2019-06-26T21:03:38.685Z,58.60
2019-06-26T21:06:07.101Z,58.60
2019-06-26T21:08:35.545Z,58.60
2019-06-26T21:11:03.945Z,58.70
2019-06-26T21:13:32.350Z,58.80
2019-06-26T21:16:00.772Z,58.80
2019-06-26T21:18:29.200Z,59.00
2019-06-26T21:20:57.605Z,59.00
2019-06-26T21:23:26.045Z,59.10
2019-06-26T21:25:54.454Z,59.10
2019-06-26T21:28:22.900Z,59.20
2019-06-26T21:30:51.336Z,59.30
2019-06-26T21:33:19.744Z,59.50
2019-06-26T21:35:48.157Z,59.50
2019-06-26T21:38:16.602Z,60.30
2019-06-26T21:40:45.014Z,59.70
2019-06-26T21:43:13.496Z,59.80
2019-06-26T21:45:41.924Z,60.70
2019-06-26T21:48:10.346Z,59.80
2019-06-26T21:50:38.758Z,59.80
2019-06-26T21:53:07.184Z,60.00
2019-06-26T21:55:35.596Z,59.90
2019-06-26T21:58:04.011Z,59.90
2019-06-26T22:00:34.234Z,60.00
2019-06-26T22:03:02.674Z,60.10
2019-06-26T22:05:31.149Z,60.10
2019-06-26T22:07:59.572Z,60.20
2019-06-26T22:10:27.989Z,60.30
2019-06-26T22:12:56.452Z,61.10
2019-06-26T22:15:25.128Z,60.30
2019-06-26T22:17:53.557Z,60.60
2019-06-26T22:20:22.041Z,60.60
2019-06-26T22:22:50.517Z,60.50
2019-06-26T22:25:50.462Z,60.80
2019-06-26T22:28:08.456Z,60.80
2019-06-26T22:30:37.034Z,60.80
2019-06-26T22:33:06.114Z,61.00
2019-06-26T22:35:34.905Z,61.20
2019-06-26T22:38:03.319Z,61.30
2019-06-26T22:40:31.725Z,61.20
2019-06-26T22:43:00.153Z,61.20
2019-06-26T22:45:28.571Z,62.10
2019-06-26T22:47:57.024Z,61.30
2019-06-26T22:50:25.454Z,61.40
2019-06-26T22:52:53.864Z,61.40
2019-06-26T22:55:22.273Z,61.60
2019-06-26T22:57:50.713Z,61.40
2019-06-26T23:00:20.810Z,61.50
2019-06-26T23:02:49.221Z,61.70
2019-06-26T23:05:17.661Z,61.70
2019-06-26T23:07:46.081Z,61.90
2019-06-26T23:10:15.132Z,61.90
2019-06-26T23:12:44.289Z,62.10
2019-06-26T23:15:13.248Z,62.20
2019-06-26T23:17:41.658Z,62.20
2019-06-26T23:20:11.686Z,63.10
2019-06-26T23:22:40.101Z,62.30
2019-06-26T23:25:08.760Z,62.50
2019-06-26T23:27:37.180Z,62.60
2019-06-26T23:30:12.149Z,62.60
2019-06-26T23:32:41.605Z,62.70
2019-06-26T23:35:10.045Z,62.70
2019-06-26T23:37:38.453Z,62.70
2019-06-26T23:40:06.940Z,62.70
2019-06-26T23:42:35.370Z,62.90
2019-06-26T23:45:07.607Z,63.00
2019-06-26T23:47:36.016Z,63.10
2019-06-26T23:50:05.500Z,63.00
2019-06-26T23:52:33.916Z,63.50
2019-06-26T23:55:02.603Z,63.10
2019-06-26T23:57:31.045Z,63.30
2019-06-26T23:59:59.460Z,63.20
